Time;durP1;ratioP1;P1;durP2;ratioP2;P2;SDS_P1;SDS_P2;PMS_P1;PMS_P2;Temp;Humidity;BMP_temperature;BMP_pressure;BME280_temperature;BME280_humidity;BME280_pressure;Samples;Min_cycle;Max_cycle;Signal;HPM_P1;HPM_P2
2023/01/16 00:01:52;;;;;;;2.42;1.05;;;;;;;;;;5053819;28;20103;-72
2023/01/16 00:04:17;;;;;;;2.15;0.85;;;;;;;;;;5053830;28;20029;-72
2023/01/16 00:06:43;;;;;;;3.67;1.00;;;;;;;;;;5053443;28;20025;-72
2023/01/16 00:09:08;;;;;;;2.63;0.90;;;;;;;;;;5053769;28;20112;-71
2023/01/16 00:11:34;;;;;;;3.92;1.35;;;;;;;;;;5053570;28;20098;-72
2023/01/16 00:13:59;;;;;;;1.38;0.82;;;;;;;;;;5053352;28;20018;-71
2023/01/16 00:16:26;;;;;;;3.85;0.90;;;;;;;;;;5052588;28;20032;-71
2023/01/16 00:18:52;;;;;;;3.10;1.13;;;;;;;;;;5053534;28;20029;-72
2023/01/16 00:21:19;;;;;;;1.88;0.95;;;;;;;;;;5053458;28;20100;-71
2023/01/16 00:23:45;;;;;;;3.28;0.90;;;;;;;;;;5063818;28;20080;-71
2023/01/16 00:26:11;;;;;;;2.20;0.93;;;;;;;;;;5073333;28;20028;-72
2023/01/16 00:28:37;;;;;;;1.40;0.90;;;;;;;;;;5073420;28;20074;-71
2023/01/16 00:31:04;;;;;;;1.75;0.73;;;;;;;;;;5073457;28;20028;-72
2023/01/16 00:33:30;;;;;;;2.75;1.00;;;;;;;;;;5058440;28;20108;-72
2023/01/16 00:35:56;;;;;;;1.65;0.70;;;;;;;;;;5053016;28;20128;-71
2023/01/16 00:38:21;;;;;;;2.38;0.95;;;;;;;;;;5066826;28;20520;-72
2023/01/16 00:40:47;;;;;;;3.65;1.50;;;;;;;;;;5073113;28;20059;-71
2023/01/16 00:43:12;;;;;;;5.53;1.80;;;;;;;;;;5073240;28;20024;-71
2023/01/16 00:45:39;;;;;;;3.85;1.80;;;;;;;;;;5073002;28;20377;-72
2023/01/16 00:48:05;;;;;;;4.22;1.45;;;;;;;;;;5070285;28;20028;-71
2023/01/16 00:50:30;;;;;;;3.00;1.20;;;;;;;;;;5052803;28;20191;-71
2023/01/16 00:52:56;;;;;;;4.93;1.20;;;;;;;;;;5053001;28;20112;-71
2023/01/16 00:55:21;;;;;;;3.15;1.13;;;;;;;;;;5052462;28;20029;-71
2023/01/16 00:57:48;;;;;;;2.53;0.93;;;;;;;;;;5052423;28;20489;-71
2023/01/16 01:00:14;;;;;;;5.38;1.05;;;;;;;;;;5034605;28;20056;-71
2023/01/16 01:02:40;;;;;;;2.50;0.98;;;;;;;;;;5062384;28;20028;-71
2023/01/16 01:05:06;;;;;;;2.75;0.93;;;;;;;;;;5056729;28;20112;-71
2023/01/16 01:07:32;;;;;;;3.40;1.15;;;;;;;;;;5051676;28;20061;-71
2023/01/16 01:09:57;;;;;;;3.08;1.20;;;;;;;;;;5052559;28;20025;-71
2023/01/16 01:12:23;;;;;;;4.10;1.60;;;;;;;;;;5061203;28;20149;-72
2023/01/16 01:14:48;;;;;;;2.90;1.55;;;;;;;;;;5071033;28;20413;-73
2023/01/16 01:17:14;;;;;;;3.95;1.13;;;;;;;;;;5057563;28;20067;-73
2023/01/16 01:19:39;;;;;;;7.85;1.33;;;;;;;;;;5061431;28;20044;-72
2023/01/16 01:22:05;;;;;;;3.10;1.33;;;;;;;;;;5056954;28;20048;-73
2023/01/16 01:24:30;;;;;;;4.50;1.52;;;;;;;;;;5072664;28;20418;-73
2023/01/16 01:26:55;;;;;;;4.15;1.35;;;;;;;;;;5072471;28;20366;-73
2023/01/16 01:29:21;;;;;;;5.03;1.20;;;;;;;;;;5072372;28;20498;-73
2023/01/16 01:31:46;;;;;;;3.90;1.20;;;;;;;;;;5072416;28;20039;-73
2023/01/16 01:34:12;;;;;;;1.92;1.20;;;;;;;;;;5058259;28;20528;-72
2023/01/16 01:36:37;;;;;;;2.58;1.00;;;;;;;;;;5052331;28;20044;-71
2023/01/16 01:39:03;;;;;;;3.45;1.25;;;;;;;;;;5050790;28;20474;-70
2023/01/16 01:41:28;;;;;;;5.05;1.20;;;;;;;;;;5052293;28;20017;-71
2023/01/16 01:43:55;;;;;;;2.95;1.17;;;;;;;;;;5052173;28;20172;-71
2023/01/16 01:46:27;;;;;;;5.18;1.52;;;;;;;;;;5051771;28;20711;-71
2023/01/16 01:49:00;;;;;;;1.58;0.98;;;;;;;;;;5050869;28;20386;-71
2023/01/16 01:51:32;;;;;;;2.50;0.98;;;;;;;;;;5051154;28;20036;-73
2023/01/16 01:54:05;;;;;;;1.40;0.80;;;;;;;;;;5050933;28;20021;-71
2023/01/16 01:56:43;;;;;;;5.78;1.20;;;;;;;;;;5051014;28;20025;-71
2023/01/16 01:59:22;;;;;;;3.33;1.10;;;;;;;;;;5050630;28;20490;-71
2023/01/16 02:01:48;;;;;;;3.10;0.95;;;;;;;;;;5051100;28;20029;-71
2023/01/16 02:04:18;;;;;;;3.00;1.23;;;;;;;;;;5050726;28;20070;-71
2023/01/16 02:06:43;;;;;;;;;;;;;;;;;;5051483;28;20037;-71
2023/01/16 02:09:09;;;;;;;3.58;1.20;;;;;;;;;;5051285;28;19953;-71
2023/01/16 02:11:40;;;;;;;3.03;1.00;;;;;;;;;;5050623;28;20025;-71
2023/01/16 02:14:09;;;;;;;4.72;1.20;;;;;;;;;;5053374;28;20099;-71
2023/01/16 02:19:40;;;;;;;3.55;0.93;;;;;;;;;;5051767;28;20520;-71
2023/01/16 02:22:39;;;;;;;3.10;1.00;;;;;;;;;;5052557;28;20489;-71
2023/01/16 02:25:19;;;;;;;3.00;1.05;;;;;;;;;;5050787;28;20142;-71
2023/01/16 02:28:10;;;;;;;3.33;1.00;;;;;;;;;;5050795;28;20381;-71
2023/01/16 02:31:06;;;;;;;3.97;1.23;;;;;;;;;;5052294;28;20036;-73
2023/01/16 02:33:50;;;;;;;2.60;1.20;;;;;;;;;;5051611;28;20033;-71
2023/01/16 02:36:18;;;;;;;4.72;1.13;;;;;;;;;;5051965;28;20021;-71
2023/01/16 02:38:55;;;;;;;2.92;1.00;;;;;;;;;;5052894;28;20025;-71
2023/01/16 02:41:42;;;;;;;5.45;1.25;;;;;;;;;;5053195;28;20060;-70
2023/01/16 02:44:33;;;;;;;3.40;0.90;;;;;;;;;;5054014;28;20451;-70
2023/01/16 02:47:26;;;;;;;2.47;0.98;;;;;;;;;;5031170;28;20513;-70
2023/01/16 02:50:01;;;;;;;5.00;0.98;;;;;;;;;;5031711;28;20029;-71
2023/01/16 02:52:44;;;;;;;1.77;1.00;;;;;;;;;;5031690;28;20445;-71
2023/01/16 02:55:21;;;;;;;3.25;0.90;;;;;;;;;;5031484;28;20021;-71
2023/01/16 02:57:51;;;;;;;2.67;0.98;;;;;;;;;;5031345;28;20034;-71
2023/01/16 03:00:19;;;;;;;3.58;1.45;;;;;;;;;;5030794;28;20036;-71
2023/01/16 03:02:45;;;;;;;2.40;1.02;;;;;;;;;;5031127;28;20116;-71
2023/01/16 03:05:12;;;;;;;2.67;0.93;;;;;;;;;;5031224;28;20044;-73
2023/01/16 03:08:01;;;;;;;2.15;1.00;;;;;;;;;;5031148;28;20033;-73
2023/01/16 03:10:32;;;;;;;2.30;1.00;;;;;;;;;;5030792;28;20562;-73
2023/01/16 03:13:09;;;;;;;2.58;1.30;;;;;;;;;;5031137;28;20064;-71
2023/01/16 03:16:22;;;;;;;1.80;1.08;;;;;;;;;;5030312;28;20033;-71
2023/01/16 03:18:57;;;;;;;6.05;1.35;;;;;;;;;;5029460;28;20049;-73
2023/01/16 03:21:40;;;;;;;2.95;1.20;;;;;;;;;;5030525;28;20037;-72
2023/01/16 03:24:09;;;;;;;4.18;1.10;;;;;;;;;;5044233;28;20037;-73
2023/01/16 03:26:48;;;;;;;2.72;0.90;;;;;;;;;;5053419;28;20079;-73
2023/01/16 03:29:34;;;;;;;3.20;1.38;;;;;;;;;;5053078;28;20378;-73
2023/01/16 03:32:09;;;;;;;2.13;1.00;;;;;;;;;;5053239;28;20045;-73
2023/01/16 03:34:53;;;;;;;5.22;1.35;;;;;;;;;;5052553;28;20029;-73
2023/01/16 03:37:40;;;;;;;3.03;1.00;;;;;;;;;;5052614;28;20028;-73
2023/01/16 03:40:10;;;;;;;4.05;1.10;;;;;;;;;;5052291;28;20032;-73
2023/01/16 03:42:41;;;;;;;1.33;0.95;;;;;;;;;;5052645;28;20025;-72
2023/01/16 03:45:16;;;;;;;3.15;1.23;;;;;;;;;;5052579;28;20104;-73
2023/01/16 03:47:48;;;;;;;5.35;1.30;;;;;;;;;;5052790;28;20530;-73
2023/01/16 03:50:16;;;;;;;3.17;1.02;;;;;;;;;;5052647;28;20398;-73
2023/01/16 03:52:47;;;;;;;4.20;1.27;;;;;;;;;;5052720;28;20033;-73
2023/01/16 03:55:18;;;;;;;2.55;1.30;;;;;;;;;;5051486;28;20021;-73
2023/01/16 03:57:53;;;;;;;2.47;1.20;;;;;;;;;;5052695;28;20486;-73
2023/01/16 04:00:19;;;;;;;1.92;1.00;;;;;;;;;;5052264;28;20072;-73
2023/01/16 04:02:50;;;;;;;5.07;1.38;;;;;;;;;;5052070;28;20470;-73
2023/01/16 04:05:16;;;;;;;3.22;1.20;;;;;;;;;;5052014;28;20079;-72
2023/01/16 04:07:51;;;;;;;4.38;1.55;;;;;;;;;;5051935;28;20056;-73
2023/01/16 04:10:22;;;;;;;1.50;0.88;;;;;;;;;;5052139;28;20024;-73
2023/01/16 04:12:55;;;;;;;1.55;0.90;;;;;;;;;;5052182;28;20083;-72
2023/01/16 04:15:23;;;;;;;5.38;1.30;;;;;;;;;;5052393;28;20021;-73
2023/01/16 04:17:49;;;;;;;3.45;1.63;;;;;;;;;;5052148;28;20049;-73
2023/01/16 04:20:15;;;;;;;2.60;1.30;;;;;;;;;;5051981;28;20033;-73
2023/01/16 04:22:41;;;;;;;2.28;1.08;;;;;;;;;;5050769;28;20032;-73
2023/01/16 04:25:08;;;;;;;3.75;1.10;;;;;;;;;;5052168;28;20375;-73
2023/01/16 04:27:34;;;;;;;2.60;1.23;;;;;;;;;;5051820;28;20056;-73
2023/01/16 04:29:59;;;;;;;2.75;1.40;;;;;;;;;;5051744;28;20063;-73
2023/01/16 04:32:25;;;;;;;3.50;1.40;;;;;;;;;;5051597;28;20049;-71
2023/01/16 04:34:50;;;;;;;4.55;2.05;;;;;;;;;;5047032;28;20017;-73
2023/01/16 04:37:17;;;;;;;4.03;1.20;;;;;;;;;;5031478;28;20079;-73
2023/01/16 04:39:43;;;;;;;2.30;1.30;;;;;;;;;;5031366;28;20109;-73
2023/01/16 04:42:09;;;;;;;3.53;1.67;;;;;;;;;;5031639;28;20112;-73
2023/01/16 04:44:34;;;;;;;2.42;1.42;;;;;;;;;;5030573;28;20081;-73
2023/01/16 04:47:00;;;;;;;2.90;1.52;;;;;;;;;;5031912;28;20053;-73
2023/01/16 04:49:26;;;;;;;2.90;1.45;;;;;;;;;;5045076;28;20035;-73
2023/01/16 04:51:51;;;;;;;3.13;1.40;;;;;;;;;;5051561;28;20033;-73
2023/01/16 04:54:18;;;;;;;2.97;1.20;;;;;;;;;;5051364;28;20028;-73
2023/01/16 04:56:44;;;;;;;3.75;1.45;;;;;;;;;;5051242;28;20029;-73
2023/01/16 04:59:12;;;;;;;6.38;2.28;;;;;;;;;;5051417;28;20067;-73
2023/01/16 05:01:38;;;;;;;5.53;1.33;;;;;;;;;;5051328;28;20070;-73
2023/01/16 05:04:04;;;;;;;5.65;1.60;;;;;;;;;;5050785;28;20025;-73
2023/01/16 05:06:31;;;;;;;4.45;1.67;;;;;;;;;;5050978;28;20025;-73
2023/01/16 05:08:57;;;;;;;3.33;1.10;;;;;;;;;;5050761;28;20028;-73
2023/01/16 05:11:22;;;;;;;3.08;1.30;;;;;;;;;;5050636;28;20029;-73
2023/01/16 05:13:47;;;;;;;2.90;1.20;;;;;;;;;;5051299;28;20033;-73
2023/01/16 05:16:13;;;;;;;4.60;1.30;;;;;;;;;;5051043;28;20028;-73
2023/01/16 05:18:38;;;;;;;5.43;1.30;;;;;;;;;;5051157;28;20029;-73
2023/01/16 05:21:04;;;;;;;5.32;1.30;;;;;;;;;;5050962;28;20025;-73
2023/01/16 05:23:33;;;;;;;3.55;1.15;;;;;;;;;;5051062;28;20100;-73
2023/01/16 05:25:59;;;;;;;2.30;1.33;;;;;;;;;;5050781;28;20526;-73
2023/01/16 05:28:24;;;;;;;3.70;1.50;;;;;;;;;;5051040;28;20202;-73
2023/01/16 05:30:49;;;;;;;2.95;1.20;;;;;;;;;;5051044;28;20021;-73
2023/01/16 05:33:15;;;;;;;6.13;1.50;;;;;;;;;;5050797;28;20386;-72
2023/01/16 05:35:41;;;;;;;4.63;1.88;;;;;;;;;;5050222;28;20020;-73
2023/01/16 05:38:07;;;;;;;6.72;1.98;;;;;;;;;;5050298;28;20033;-73
2023/01/16 05:40:32;;;;;;;4.15;1.95;;;;;;;;;;5050033;28;20033;-73
2023/01/16 05:42:58;;;;;;;5.05;1.63;;;;;;;;;;5049886;28;20021;-73
2023/01/16 05:45:23;;;;;;;6.18;1.80;;;;;;;;;;5050709;28;20028;-73
2023/01/16 05:47:48;;;;;;;3.38;1.80;;;;;;;;;;5050574;28;20056;-72
2023/01/16 05:50:14;;;;;;;5.82;1.30;;;;;;;;;;5050625;28;20032;-73
2023/01/16 05:52:39;;;;;;;3.70;1.67;;;;;;;;;;5050794;28;20025;-73
2023/01/16 05:55:05;;;;;;;4.70;1.63;;;;;;;;;;5050680;28;20029;-71
2023/01/16 05:57:31;;;;;;;6.53;1.67;;;;;;;;;;5049320;28;20033;-71
2023/01/16 05:59:56;;;;;;;6.75;2.03;;;;;;;;;;5050525;28;20028;-72
2023/01/16 06:02:21;;;;;;;4.47;2.20;;;;;;;;;;5050355;28;20040;-72
2023/01/16 06:04:47;;;;;;;6.40;2.10;;;;;;;;;;5049940;28;20102;-72
2023/01/16 06:07:13;;;;;;;6.30;2.10;;;;;;;;;;5049949;28;20036;-72
2023/01/16 06:09:39;;;;;;;5.63;2.55;;;;;;;;;;5049666;28;20037;-72
2023/01/16 06:12:07;;;;;;;4.05;2.20;;;;;;;;;;5050252;28;20028;-72
2023/01/16 06:14:33;;;;;;;5.97;2.40;;;;;;;;;;5050449;28;20052;-72
2023/01/16 06:16:58;;;;;;;5.57;2.17;;;;;;;;;;5050261;28;20038;-72
2023/01/16 06:19:24;;;;;;;5.25;1.95;;;;;;;;;;5050294;28;20433;-72
2023/01/16 06:21:49;;;;;;;4.00;1.58;;;;;;;;;;5050361;28;20033;-72
2023/01/16 06:24:14;;;;;;;4.55;1.70;;;;;;;;;;5050004;28;20037;-72
2023/01/16 06:26:40;;;;;;;4.70;1.65;;;;;;;;;;5050234;28;20108;-72
2023/01/16 06:29:05;;;;;;;4.95;1.65;;;;;;;;;;5050286;28;20082;-72
2023/01/16 06:31:31;;;;;;;4.78;1.80;;;;;;;;;;5050173;28;20458;-72
2023/01/16 06:33:56;;;;;;;3.85;1.23;;;;;;;;;;5049614;28;20343;-72
2023/01/16 06:36:22;;;;;;;3.90;1.45;;;;;;;;;;5048294;28;20875;-72
2023/01/16 06:38:47;;;;;;;7.22;1.50;;;;;;;;;;5029601;28;20033;-72
2023/01/16 06:41:12;;;;;;;4.60;3.22;;;;;;;;;;5029793;28;20105;-72
2023/01/16 06:43:38;;;;;;;2.90;1.50;;;;;;;;;;5030399;28;20034;-72
2023/01/16 06:46:03;;;;;;;3.10;1.40;;;;;;;;;;5030169;28;20359;-72
2023/01/16 06:48:29;;;;;;;6.15;1.73;;;;;;;;;;5035885;28;20437;-72
2023/01/16 06:50:54;;;;;;;2.00;1.05;;;;;;;;;;5050108;28;20032;-72
2023/01/16 06:53:20;;;;;;;4.50;1.58;;;;;;;;;;5049778;28;20112;-72
2023/01/16 06:55:45;;;;;;;4.13;1.35;;;;;;;;;;5053090;28;20040;-72
2023/01/16 06:58:11;;;;;;;4.15;2.05;;;;;;;;;;5053486;28;20707;-72
2023/01/16 07:00:36;;;;;;;3.80;1.75;;;;;;;;;;5053152;28;20095;-72
2023/01/16 07:03:02;;;;;;;3.05;1.70;;;;;;;;;;5052634;28;20029;-71
2023/01/16 07:05:29;;;;;;;3.20;1.38;;;;;;;;;;5052805;28;20028;-71
2023/01/16 07:07:55;;;;;;;6.38;1.50;;;;;;;;;;5052756;28;20421;-71
2023/01/16 07:10:21;;;;;;;3.83;1.60;;;;;;;;;;5053016;28;20044;-71
2023/01/16 07:12:47;;;;;;;3.55;1.50;;;;;;;;;;5053385;28;20424;-71
2023/01/16 07:23:31;;;;;;;4.00;1.30;;;;;;;;;;5053244;28;20508;-71
2023/01/16 07:25:57;;;;;;;;;;;;;;;;;;5053572;28;20029;-71
2023/01/16 07:28:23;;;;;;;2.88;1.60;;;;;;;;;;5052977;28;19919;-71
2023/01/16 07:30:49;;;;;;;2.90;1.50;;;;;;;;;;5052721;28;20029;-71
2023/01/16 07:33:15;;;;;;;3.85;1.75;;;;;;;;;;5052547;28;20052;-71
2023/01/16 07:35:40;;;;;;;5.50;1.90;;;;;;;;;;5052460;28;20100;-71
2023/01/16 07:38:06;;;;;;;3.08;1.90;;;;;;;;;;5052118;28;20493;-71
2023/01/16 07:40:31;;;;;;;3.58;2.05;;;;;;;;;;5052688;28;20074;-71
2023/01/16 07:42:57;;;;;;;4.60;2.13;;;;;;;;;;5052766;28;20031;-71
2023/01/16 07:45:22;;;;;;;4.50;1.90;;;;;;;;;;5052684;28;20032;-71
2023/01/16 07:47:47;;;;;;;3.00;1.52;;;;;;;;;;5052746;28;20418;-71
2023/01/16 07:50:13;;;;;;;3.10;1.80;;;;;;;;;;5052504;28;20036;-71
2023/01/16 07:52:38;;;;;;;5.07;1.50;;;;;;;;;;5052684;28;20049;-71
2023/01/16 07:55:04;;;;;;;4.68;1.90;;;;;;;;;;5052717;28;20224;-71
2023/01/16 07:57:30;;;;;;;4.10;1.55;;;;;;;;;;5052379;28;20066;-71
2023/01/16 07:59:55;;;;;;;5.88;1.55;;;;;;;;;;5052217;28;20107;-71
2023/01/16 08:02:21;;;;;;;3.22;1.65;;;;;;;;;;5051754;28;20055;-71
2023/01/16 08:04:47;;;;;;;4.20;1.52;;;;;;;;;;5049920;28;20021;-71
2023/01/16 08:07:12;;;;;;;2.95;1.60;;;;;;;;;;5049445;28;20032;-70
2023/01/16 08:09:38;;;;;;;4.32;1.17;;;;;;;;;;5053272;28;20079;-71
2023/01/16 08:12:03;;;;;;;3.35;1.75;;;;;;;;;;5051827;28;20115;-71
2023/01/16 08:14:29;;;;;;;4.32;1.20;;;;;;;;;;5053129;28;20108;-71
2023/01/16 08:16:54;;;;;;;2.90;1.45;;;;;;;;;;5052965;28;20045;-71
2023/01/16 08:19:19;;;;;;;1.80;1.13;;;;;;;;;;5053075;28;20083;-71
2023/01/16 08:21:45;;;;;;;3.42;1.70;;;;;;;;;;5053148;28;20036;-71
2023/01/16 08:24:12;;;;;;;3.90;1.52;;;;;;;;;;5052985;28;20527;-73
2023/01/16 08:26:38;;;;;;;2.35;1.33;;;;;;;;;;5053347;28;20466;-71
2023/01/16 08:29:04;;;;;;;5.45;1.80;;;;;;;;;;5053214;28;20037;-71
2023/01/16 08:31:30;;;;;;;7.60;1.73;;;;;;;;;;5053448;28;20542;-71
2023/01/16 08:33:55;;;;;;;4.70;1.90;;;;;;;;;;5053009;28;20048;-71
2023/01/16 08:36:21;;;;;;;4.55;2.33;;;;;;;;;;5053087;28;20036;-71
2023/01/16 08:38:48;;;;;;;3.10;1.55;;;;;;;;;;5052821;28;20056;-71
2023/01/16 08:52:13;;;;;;;4.35;2.28;;;;;;;;;;5051722;28;20091;-71
2023/01/16 08:54:39;;;;;;;5.25;2.13;;;;;;;;;;5052869;28;20020;-71
2023/01/16 08:57:05;;;;;;;6.00;1.98;;;;;;;;;;5052708;28;20112;-71
2023/01/16 08:59:33;;;;;;;3.17;1.63;;;;;;;;;;5052574;28;20047;-71
2023/01/16 09:02:00;;;;;;;4.32;1.90;;;;;;;;;;5052572;28;20382;-71
2023/01/16 09:04:26;;;;;;;6.30;1.80;;;;;;;;;;5052542;28;20485;-71
2023/01/16 09:06:53;;;;;;;6.80;1.70;;;;;;;;;;5052410;28;20036;-71
2023/01/16 09:09:19;;;;;;;11.65;1.33;;;;;;;;;;5045756;28;20434;-71
2023/01/16 09:14:29;;;;;;;3.63;1.55;;;;;;;;;;5042955;28;20039;-71
2023/01/16 09:16:54;;;;;;;4.68;1.52;;;;;;;;;;5031754;28;20132;-71
2023/01/16 09:19:20;;;;;;;4.72;1.20;;;;;;;;;;5032353;28;20068;-71
2023/01/16 09:21:45;;;;;;;4.63;1.90;;;;;;;;;;5032617;28;20082;-71
2023/01/16 09:24:11;;;;;;;4.25;1.58;;;;;;;;;;5032366;28;20096;-71
2023/01/16 09:26:36;;;;;;;2.85;1.30;;;;;;;;;;5032300;28;20084;-72
2023/01/16 09:29:01;;;;;;;7.10;1.60;;;;;;;;;;5032352;28;20064;-71
2023/01/16 09:31:27;;;;;;;3.13;1.40;;;;;;;;;;5032381;28;20029;-72
2023/01/16 09:33:54;;;;;;;2.70;1.70;;;;;;;;;;5032176;28;20030;-71
2023/01/16 09:36:20;;;;;;;3.40;1.42;;;;;;;;;;5031974;28;20029;-71
2023/01/16 09:38:45;;;;;;;5.05;2.33;;;;;;;;;;5032359;28;20055;-71
2023/01/16 09:44:07;;;;;;;5.65;2.08;;;;;;;;;;5052251;28;20146;-71
2023/01/16 09:46:38;;;;;;;5.93;2.20;;;;;;;;;;5052069;28;20477;-71
2023/01/16 09:49:11;;;;;;;4.88;1.95;;;;;;;;;;5051915;28;20090;-71
2023/01/16 09:58:34;;;;;;;5.82;1.30;;;;;;;;;;5052159;28;20112;-71
2023/01/16 10:00:05;;;;;;;2.80;1.30;;;;;;;;;;5051726;28;20048;-72
2023/01/16 10:02:34;;;;;;;3.63;1.30;;;;;;;;;;5051778;28;20078;-72
2023/01/16 10:05:04;;;;;;;5.90;1.70;;;;;;;;;;5052011;28;20025;-72
2023/01/16 10:07:38;;;;;;;;;;;;;;;;;;5052268;28;20107;-73
2023/01/16 10:10:22;;;;;;;2.13;1.10;;;;;;;;;;5051903;28;20301;-72
2023/01/16 10:13:11;;;;;;;4.57;2.40;;;;;;;;;;5051834;28;20021;-72
2023/01/16 10:15:51;;;;;;;2.67;1.30;;;;;;;;;;5051735;28;20029;-72
2023/01/16 10:18:32;;;;;;;5.22;1.73;;;;;;;;;;5051512;28;20045;-72
2023/01/16 10:21:22;;;;;;;4.88;1.38;;;;;;;;;;5051830;28;20040;-72
2023/01/16 10:23:58;;;;;;;4.65;1.25;;;;;;;;;;5051518;28;20052;-72
2023/01/16 10:26:34;;;;;;;2.38;1.17;;;;;;;;;;5051743;28;20037;-72
2023/01/16 10:29:32;;;;;;;5.43;1.42;;;;;;;;;;5053812;28;20064;-72
2023/01/16 10:32:00;;;;;;;4.63;1.33;;;;;;;;;;5055429;28;20095;-72
2023/01/16 10:34:36;;;;;;;5.05;2.22;;;;;;;;;;5055679;28;20528;-72
2023/01/16 10:37:03;;;;;;;2.53;1.38;;;;;;;;;;5055548;28;20021;-72
2023/01/16 10:39:38;;;;;;;3.85;1.50;;;;;;;;;;5055437;28;20079;-72
2023/01/16 10:50:45;;;;;;;14.32;2.45;;;;;;;;;;5055432;28;20071;-72
2023/01/16 10:53:11;;;;;;;4.88;1.63;;;;;;;;;;5055310;28;20041;-72
2023/01/16 10:55:44;;;;;;;3.85;1.70;;;;;;;;;;5055255;28;20382;-71
2023/01/16 10:58:29;;;;;;;4.20;1.60;;;;;;;;;;5055146;28;20048;-72
2023/01/16 11:01:03;;;;;;;3.10;1.63;;;;;;;;;;5054860;28;20028;-72
2023/01/16 11:03:39;;;;;;;7.45;2.05;;;;;;;;;;5055048;28;20046;-72
2023/01/16 11:06:29;;;;;;;5.30;1.67;;;;;;;;;;5054564;28;20031;-71
2023/01/16 11:09:06;;;;;;;4.20;1.65;;;;;;;;;;5051815;28;20037;-70
2023/01/16 11:20:38;;;;;;;;;;;;;;;;;;5054253;28;20422;-71
2023/01/16 11:23:15;;;;;;;4.05;1.50;;;;;;;;;;5054634;28;19913;-71
2023/01/16 11:25:42;;;;;;;5.60;2.33;;;;;;;;;;5054840;28;20025;-70
2023/01/16 11:28:13;;;;;;;13.05;3.08;;;;;;;;;;5054129;28;20025;-71
2023/01/16 11:30:42;;;;;;;5.65;1.65;;;;;;;;;;5054479;28;20096;-71
2023/01/16 11:33:34;;;;;;;4.45;1.63;;;;;;;;;;5054461;28;20024;-71
2023/01/16 11:36:02;;;;;;;4.15;1.60;;;;;;;;;;5052818;28;20044;-70
2023/01/16 11:38:32;;;;;;;1.83;1.13;;;;;;;;;;5054427;28;20052;-70
2023/01/16 11:41:00;;;;;;;6.10;1.95;;;;;;;;;;5053342;28;20493;-71
2023/01/16 11:46:27;;;;;;;7.88;1.60;;;;;;;;;;5053735;28;20155;-70
2023/01/16 11:48:57;;;;;;;3.03;1.33;;;;;;;;;;5053835;28;20021;-71
2023/01/16 11:51:31;;;;;;;6.18;1.95;;;;;;;;;;5054136;28;20426;-70
2023/01/16 11:53:58;;;;;;;5.65;1.65;;;;;;;;;;5054157;28;20063;-71
2023/01/16 11:56:33;;;;;;;4.38;1.67;;;;;;;;;;5066516;28;20032;-70
2023/01/16 11:59:14;;;;;;;10.45;1.83;;;;;;;;;;5073829;28;20028;-71
2023/01/16 12:02:15;;;;;;;3.10;1.27;;;;;;;;;;5074027;28;20028;-70
2023/01/16 12:05:53;;;;;;;5.32;1.50;;;;;;;;;;5063945;28;20062;-70
2023/01/16 12:08:03;;;;;;;3.97;1.38;;;;;;;;;;5053567;28;20453;-70
2023/01/16 12:10:35;;;;;;;8.02;2.67;;;;;;;;;;5053651;28;20075;-70
2023/01/16 12:16:20;;;;;;;3.63;1.50;;;;;;;;;;5053205;28;20043;-71
2023/01/16 12:19:01;;;;;;;3.65;1.60;;;;;;;;;;5053425;28;20039;-72
2023/01/16 12:21:29;;;;;;;8.80;1.50;;;;;;;;;;5053373;28;20025;-72
2023/01/16 12:24:12;;;;;;;3.35;1.52;;;;;;;;;;5053396;28;20029;-71
2023/01/16 12:27:05;;;;;;;3.83;1.58;;;;;;;;;;5053238;28;20027;-71
2023/01/16 12:29:46;;;;;;;3.65;1.58;;;;;;;;;;5051660;28;20489;-72
2023/01/16 12:32:33;;;;;;;3.60;2.00;;;;;;;;;;5052355;28;20116;-72
2023/01/16 12:35:30;;;;;;;2.53;1.40;;;;;;;;;;5053125;28;20017;-72
2023/01/16 12:38:15;;;;;;;2.72;1.35;;;;;;;;;;5053024;28;20346;-72
2023/01/16 12:44:01;;;;;;;9.77;2.28;;;;;;;;;;5032973;28;20061;-72
2023/01/16 12:46:42;;;;;;;4.13;1.58;;;;;;;;;;5047893;28;20025;-72
2023/01/16 12:49:36;;;;;;;3.80;1.65;;;;;;;;;;5052425;28;20097;-72
2023/01/16 12:52:26;;;;;;;3.67;2.03;;;;;;;;;;5052772;28;20087;-72
2023/01/16 12:55:15;;;;;;;3.85;1.70;;;;;;;;;;5052649;28;20462;-72
2023/01/16 12:57:50;;;;;;;6.63;2.05;;;;;;;;;;5030575;28;20191;-72
2023/01/16 13:00:21;;;;;;;3.50;1.58;;;;;;;;;;5030149;28;20041;-72
2023/01/16 13:02:57;;;;;;;3.92;2.13;;;;;;;;;;5048466;28;20037;-72
2023/01/16 13:05:28;;;;;;;4.22;2.20;;;;;;;;;;5050660;28;20071;-72
2023/01/16 13:08:08;;;;;;;3.45;1.40;;;;;;;;;;5050153;28;20100;-72
2023/01/16 13:13:28;;;;;;;5.53;1.70;;;;;;;;;;5050804;28;20209;-72
2023/01/16 13:15:59;;;;;;;5.20;1.65;;;;;;;;;;5050413;28;20045;-72
2023/01/16 13:18:31;;;;;;;7.47;1.85;;;;;;;;;;5044867;28;20063;-71
2023/01/16 13:21:01;;;;;;;8.00;1.98;;;;;;;;;;5050337;28;20560;-72
2023/01/16 13:23:37;;;;;;;3.42;1.50;;;;;;;;;;5049873;28;20481;-72
2023/01/16 13:26:07;;;;;;;4.45;1.60;;;;;;;;;;5050152;28;20057;-72
2023/01/16 13:28:44;;;;;;;;;;;;;;;;;;5050691;28;20112;-72
2023/01/16 13:31:17;;;;;;;3.80;1.80;;;;;;;;;;5050422;28;19912;-72
2023/01/16 13:33:45;;;;;;;6.78;1.58;;;;;;;;;;5041893;28;20044;-72
2023/01/16 13:36:29;;;;;;;3.20;1.42;;;;;;;;;;5051358;28;20032;-71
2023/01/16 13:39:19;;;;;;;6.75;1.65;;;;;;;;;;5051895;28;20017;-71
2023/01/16 13:41:47;;;;;;;2.47;1.60;;;;;;;;;;5052322;28;20071;-72
2023/01/16 13:47:10;;;;;;;6.47;2.10;;;;;;;;;;5051910;28;20032;-72
2023/01/16 13:49:35;;;;;;;3.85;1.50;;;;;;;;;;5049139;28;20025;-72
2023/01/16 13:52:02;;;;;;;5.18;1.90;;;;;;;;;;5054956;28;20025;-72
2023/01/16 13:54:45;;;;;;;9.07;1.58;;;;;;;;;;5051569;28;20108;-72
2023/01/16 13:57:21;;;;;;;3.70;1.60;;;;;;;;;;5069710;28;20108;-71
2023/01/16 13:59:46;;;;;;;2.95;1.77;;;;;;;;;;5072212;28;20036;-72
2023/01/16 14:02:25;;;;;;;3.83;2.10;;;;;;;;;;5072029;28;20033;-71
2023/01/16 14:05:24;;;;;;;5.03;2.30;;;;;;;;;;5075518;28;20027;-71
2023/01/16 14:10:50;;;;;;;4.93;2.83;;;;;;;;;;5076281;28;20120;-71
2023/01/16 14:13:19;;;;;;;5.22;1.90;;;;;;;;;;5076112;28;20021;-72
2023/01/16 14:18:47;;;;;;;5.93;2.05;;;;;;;;;;5059612;28;20098;-73
2023/01/16 14:21:19;;;;;;;2.97;1.65;;;;;;;;;;5056025;28;20130;-73
2023/01/16 14:24:01;;;;;;;3.97;2.10;;;;;;;;;;5055729;28;20374;-71
2023/01/16 14:26:34;;;;;;;3.28;1.80;;;;;;;;;;5055912;28;20025;-71
2023/01/16 14:29:27;;;;;;;4.18;1.65;;;;;;;;;;5055712;28;20028;-71
2023/01/16 14:32:04;;;;;;;6.25;2.25;;;;;;;;;;5055749;28;20032;-72
2023/01/16 14:34:36;;;;;;;6.22;2.25;;;;;;;;;;5055518;28;20036;-71
2023/01/16 14:37:05;;;;;;;6.82;2.67;;;;;;;;;;5055268;28;20036;-73
2023/01/16 14:39:37;;;;;;;4.93;2.90;;;;;;;;;;5044027;28;20025;-71
2023/01/16 14:56:41;;;;;;;5.60;2.20;;;;;;;;;;5055509;28;20032;-73
2023/01/16 14:59:12;;;;;;;6.05;2.90;;;;;;;;;;5055220;28;20029;-73
2023/01/16 15:04:31;;;;;;;5.53;2.28;;;;;;;;;;5054966;28;20032;-73
2023/01/16 15:07:02;;;;;;;5.15;2.60;;;;;;;;;;5054875;28;20111;-73
2023/01/16 15:09:28;;;;;;;;;;;;;;;;;;5055345;28;20025;-71
2023/01/16 15:11:59;;;;;;;7.63;2.70;;;;;;;;;;5054772;28;20357;-73
2023/01/16 15:23:15;;;;;;;8.43;2.88;;;;;;;;;;5052160;28;20036;-72
2023/01/16 15:26:18;;;;;;;5.82;2.47;;;;;;;;;;5052581;28;20048;-71
2023/01/16 15:29:14;;;;;;;5.80;2.63;;;;;;;;;;4973681;28;20157;-72
2023/01/16 15:31:42;;;;;;;3.58;1.58;;;;;;;;;;4973657;28;20039;-71
2023/01/16 15:34:13;;;;;;;6.35;2.40;;;;;;;;;;4973589;28;20452;-71
2023/01/16 15:36:43;;;;;;;6.45;2.45;;;;;;;;;;4973607;28;20105;-72
2023/01/16 15:39:26;;;;;;;5.97;2.57;;;;;;;;;;4973220;28;20035;-71
2023/01/16 15:47:49;;;;;;;6.20;2.50;;;;;;;;;;4973696;28;20101;-71
2023/01/16 15:50:21;;;;;;;6.05;2.35;;;;;;;;;;4973103;28;20050;-72
2023/01/16 15:52:46;;;;;;;4.88;2.22;;;;;;;;;;4973236;28;20038;-72
2023/01/16 15:55:24;;;;;;;6.03;2.58;;;;;;;;;;4973191;28;20035;-71
2023/01/16 15:58:00;;;;;;;6.35;2.53;;;;;;;;;;4973085;28;20049;-72
2023/01/16 16:00:30;;;;;;;3.45;2.25;;;;;;;;;;4973140;28;20113;-72
2023/01/16 16:02:58;;;;;;;6.63;2.67;;;;;;;;;;4973211;28;20035;-72
2023/01/16 16:05:26;;;;;;;3.38;2.30;;;;;;;;;;5033051;28;20478;-72
2023/01/16 16:07:52;;;;;;;6.93;3.10;;;;;;;;;;5033614;28;20052;-72
2023/01/16 16:11:51;;;;;;;5.28;2.10;;;;;;;;;;5033673;28;20021;-72
2023/01/16 16:13:06;;;;;;;8.60;2.92;;;;;;;;;;5033764;28;20033;-72
2023/01/16 16:18:19;;;;;;;7.97;3.35;;;;;;;;;;5034619;28;20115;-72
2023/01/16 16:20:46;;;;;;;3.08;1.90;;;;;;;;;;5053445;28;20029;-73
2023/01/16 16:23:20;;;;;;;7.03;3.20;;;;;;;;;;5053361;28;20044;-73
2023/01/16 16:26:10;;;;;;;8.35;2.33;;;;;;;;;;5053064;28;20035;-72
2023/01/16 16:28:38;;;;;;;11.20;3.83;;;;;;;;;;5053496;28;20033;-72
2023/01/16 16:31:33;;;;;;;10.57;3.85;;;;;;;;;;5053581;28;20029;-72
2023/01/16 16:34:19;;;;;;;7.53;3.10;;;;;;;;;;5053437;28;20040;-72
2023/01/16 16:36:47;;;;;;;8.85;3.28;;;;;;;;;;5053155;28;20020;-72
2023/01/16 16:39:33;;;;;;;7.43;3.20;;;;;;;;;;5052986;28;20043;-72
2023/01/16 16:44:46;;;;;;;4.45;2.75;;;;;;;;;;5053291;28;20488;-72
2023/01/16 16:47:29;;;;;;;10.57;3.63;;;;;;;;;;5032475;28;20037;-72
2023/01/16 16:49:55;;;;;;;7.15;3.70;;;;;;;;;;5050157;28;20104;-72
2023/01/16 16:52:22;;;;;;;8.85;4.15;;;;;;;;;;5046914;28;20171;-72
2023/01/16 16:54:57;;;;;;;7.65;3.65;;;;;;;;;;5038607;28;20033;-72
2023/01/16 16:57:25;;;;;;;7.07;3.15;;;;;;;;;;5032498;28;20033;-72
2023/01/16 16:59:53;;;;;;;9.88;3.92;;;;;;;;;;5038550;28;20028;-72